sensor_id;sensor_type;location;lat;lon;timestamp;P1;durP1;ratioP1;P2;durP2;ratioP2
20004;SDS011;69160;45.498;-73.582;2023-07-13T00:00:41;7.50;;;4.87;;
20004;SDS011;69160;45.498;-73.582;2023-07-13T00:03:07;6.17;;;3.90;;
20004;SDS011;69160;45.498;-73.582;2023-07-13T00:05:34;4.27;;;2.70;;
20004;SDS011;69160;45.498;-73.582;2023-07-13T00:08:00;2.30;;;1.70;;
20004;SDS011;69160;45.498;-73.582;2023-07-13T00:10:26;2.57;;;2.10;;
20004;SDS011;69160;45.498;-73.582;2023-07-13T00:12:52;2.60;;;2.37;;
20004;SDS011;69160;45.498;-73.582;2023-07-13T00:15:21;3.33;;;2.23;;
20004;SDS011;69160;45.498;-73.582;2023-07-13T00:17:49;2.00;;;1.70;;
20004;SDS011;69160;45.498;-73.582;2023-07-13T00:20:17;3.43;;;1.90;;
20004;SDS011;69160;45.498;-73.582;2023-07-13T00:22:43;3.10;;;1.70;;
20004;SDS011;69160;45.498;-73.582;2023-07-13T00:25:10;2.60;;;1.97;;
20004;SDS011;69160;45.498;-73.582;2023-07-13T00:27:37;1.73;;;1.63;;
20004;SDS011;69160;45.498;-73.582;2023-07-13T00:30:03;2.80;;;2.00;;
20004;SDS011;69160;45.498;-73.582;2023-07-13T00:32:30;2.03;;;1.70;;
20004;SDS011;69160;45.498;-73.582;2023-07-13T00:34:57;2.10;;;1.87;;
20004;SDS011;69160;45.498;-73.582;2023-07-13T00:37:25;1.67;;;1.47;;
20004;SDS011;69160;45.498;-73.582;2023-07-13T00:39:51;2.40;;;1.90;;
20004;SDS011;69160;45.498;-73.582;2023-07-13T00:42:18;1.73;;;1.63;;
20004;SDS011;69160;45.498;-73.582;2023-07-13T00:45:03;1.53;;;1.40;;
20004;SDS011;69160;45.498;-73.582;2023-07-13T00:47:49;1.87;;;1.67;;
20004;SDS011;69160;45.498;-73.582;2023-07-13T00:50:16;2.47;;;1.50;;
20004;SDS011;69160;45.498;-73.582;2023-07-13T00:52:44;3.03;;;2.27;;
20004;SDS011;69160;45.498;-73.582;2023-07-13T00:55:13;2.00;;;1.60;;
20004;SDS011;69160;45.498;-73.582;2023-07-13T00:57:41;2.13;;;1.93;;
20004;SDS011;69160;45.498;-73.582;2023-07-13T01:00:08;1.80;;;1.47;;
20004;SDS011;69160;45.498;-73.582;2023-07-13T01:02:42;1.93;;;1.60;;
20004;SDS011;69160;45.498;-73.582;2023-07-13T01:05:11;2.60;;;1.93;;
20004;SDS011;69160;45.498;-73.582;2023-07-13T01:07:39;1.90;;;1.70;;
20004;SDS011;69160;45.498;-73.582;2023-07-13T01:10:07;1.93;;;1.73;;
20004;SDS011;69160;45.498;-73.582;2023-07-13T01:12:33;1.60;;;1.40;;
20004;SDS011;69160;45.498;-73.582;2023-07-13T01:15:00;2.63;;;1.80;;
20004;SDS011;69160;45.498;-73.582;2023-07-13T01:17:27;2.37;;;1.63;;
20004;SDS011;69160;45.498;-73.582;2023-07-13T01:19:54;2.37;;;2.10;;
20004;SDS011;69160;45.498;-73.582;2023-07-13T01:22:21;2.50;;;1.83;;
20004;SDS011;69160;45.498;-73.582;2023-07-13T01:24:52;1.93;;;1.73;;
20004;SDS011;69160;45.498;-73.582;2023-07-13T01:27:23;4.07;;;2.20;;
20004;SDS011;69160;45.498;-73.582;2023-07-13T01:29:52;2.27;;;1.50;;
20004;SDS011;69160;45.498;-73.582;2023-07-13T01:32:27;1.77;;;1.60;;
20004;SDS011;69160;45.498;-73.582;2023-07-13T01:34:53;3.03;;;1.80;;
20004;SDS011;69160;45.498;-73.582;2023-07-13T01:37:20;2.53;;;1.70;;
20004;SDS011;69160;45.498;-73.582;2023-07-13T01:39:47;1.63;;;1.43;;
20004;SDS011;69160;45.498;-73.582;2023-07-13T01:42:13;1.77;;;1.60;;
20004;SDS011;69160;45.498;-73.582;2023-07-13T01:44:40;2.10;;;1.90;;
20004;SDS011;69160;45.498;-73.582;2023-07-13T01:47:06;1.67;;;1.57;;
20004;SDS011;69160;45.498;-73.582;2023-07-13T01:49:33;2.07;;;1.67;;
20004;SDS011;69160;45.498;-73.582;2023-07-13T01:51:59;2.57;;;1.97;;
20004;SDS011;69160;45.498;-73.582;2023-07-13T01:54:25;1.97;;;1.50;;
20004;SDS011;69160;45.498;-73.582;2023-07-13T01:56:52;2.27;;;1.40;;
20004;SDS011;69160;45.498;-73.582;2023-07-13T01:59:18;1.70;;;1.60;;
20004;SDS011;69160;45.498;-73.582;2023-07-13T02:01:44;1.73;;;1.63;;
20004;SDS011;69160;45.498;-73.582;2023-07-13T02:04:10;3.60;;;1.40;;
20004;SDS011;69160;45.498;-73.582;2023-07-13T02:06:37;2.30;;;1.87;;
20004;SDS011;69160;45.498;-73.582;2023-07-13T02:09:03;2.50;;;1.73;;
20004;SDS011;69160;45.498;-73.582;2023-07-13T02:11:29;4.00;;;1.70;;
20004;SDS011;69160;45.498;-73.582;2023-07-13T02:14:00;1.77;;;1.43;;
20004;SDS011;69160;45.498;-73.582;2023-07-13T02:16:28;2.03;;;1.57;;
20004;SDS011;69160;45.498;-73.582;2023-07-13T02:18:54;1.50;;;1.40;;
20004;SDS011;69160;45.498;-73.582;2023-07-13T02:21:21;1.60;;;1.50;;
20004;SDS011;69160;45.498;-73.582;2023-07-13T02:23:48;2.07;;;1.73;;
20004;SDS011;69160;45.498;-73.582;2023-07-13T02:26:15;2.20;;;1.90;;
20004;SDS011;69160;45.498;-73.582;2023-07-13T02:28:41;2.00;;;1.50;;
20004;SDS011;69160;45.498;-73.582;2023-07-13T02:31:08;1.40;;;1.17;;
20004;SDS011;69160;45.498;-73.582;2023-07-13T02:33:35;2.47;;;1.40;;
20004;SDS011;69160;45.498;-73.582;2023-07-13T02:36:02;1.90;;;1.63;;
20004;SDS011;69160;45.498;-73.582;2023-07-13T02:38:31;1.50;;;1.40;;
20004;SDS011;69160;45.498;-73.582;2023-07-13T02:41:02;2.23;;;1.80;;
20004;SDS011;69160;45.498;-73.582;2023-07-13T02:43:32;1.50;;;1.40;;
20004;SDS011;69160;45.498;-73.582;2023-07-13T02:45:58;1.60;;;1.50;;
20004;SDS011;69160;45.498;-73.582;2023-07-13T02:48:29;1.63;;;1.53;;
20004;SDS011;69160;45.498;-73.582;2023-07-13T02:50:55;2.20;;;1.80;;
20004;SDS011;69160;45.498;-73.582;2023-07-13T02:53:22;1.70;;;1.40;;
20004;SDS011;69160;45.498;-73.582;2023-07-13T02:55:48;1.97;;;1.47;;
20004;SDS011;69160;45.498;-73.582;2023-07-13T02:58:14;2.80;;;1.80;;
20004;SDS011;69160;45.498;-73.582;2023-07-13T03:00:43;2.03;;;1.60;;
20004;SDS011;69160;45.498;-73.582;2023-07-13T03:03:11;1.87;;;1.40;;
20004;SDS011;69160;45.498;-73.582;2023-07-13T03:05:42;1.60;;;1.50;;
20004;SDS011;69160;45.498;-73.582;2023-07-13T03:08:15;1.60;;;1.50;;
20004;SDS011;69160;45.498;-73.582;2023-07-13T03:10:43;1.87;;;1.50;;
20004;SDS011;69160;45.498;-73.582;2023-07-13T03:13:09;1.60;;;1.40;;
20004;SDS011;69160;45.498;-73.582;2023-07-13T03:15:35;1.73;;;1.60;;
20004;SDS011;69160;45.498;-73.582;2023-07-13T03:18:01;2.00;;;1.70;;
20004;SDS011;69160;45.498;-73.582;2023-07-13T03:20:27;1.50;;;1.40;;
20004;SDS011;69160;45.498;-73.582;2023-07-13T03:22:53;2.37;;;1.57;;
20004;SDS011;69160;45.498;-73.582;2023-07-13T03:25:20;2.53;;;1.50;;
20004;SDS011;69160;45.498;-73.582;2023-07-13T03:27:46;1.60;;;1.50;;
20004;SDS011;69160;45.498;-73.582;2023-07-13T03:30:12;2.30;;;1.70;;
20004;SDS011;69160;45.498;-73.582;2023-07-13T03:32:38;1.50;;;1.23;;
20004;SDS011;69160;45.498;-73.582;2023-07-13T03:35:04;1.83;;;1.53;;
20004;SDS011;69160;45.498;-73.582;2023-07-13T03:37:31;2.23;;;1.80;;
20004;SDS011;69160;45.498;-73.582;2023-07-13T03:39:57;3.10;;;1.60;;
20004;SDS011;69160;45.498;-73.582;2023-07-13T03:42:23;1.63;;;1.47;;
20004;SDS011;69160;45.498;-73.582;2023-07-13T03:44:49;1.60;;;1.40;;
20004;SDS011;69160;45.498;-73.582;2023-07-13T03:47:17;2.07;;;1.77;;
20004;SDS011;69160;45.498;-73.582;2023-07-13T03:49:44;2.27;;;1.97;;
20004;SDS011;69160;45.498;-73.582;2023-07-13T03:52:11;2.20;;;1.97;;
20004;SDS011;69160;45.498;-73.582;2023-07-13T03:54:37;1.77;;;1.40;;
20004;SDS011;69160;45.498;-73.582;2023-07-13T03:57:03;1.63;;;1.53;;
20004;SDS011;69160;45.498;-73.582;2023-07-13T03:59:30;2.53;;;1.47;;
20004;SDS011;69160;45.498;-73.582;2023-07-13T04:01:56;2.07;;;1.43;;
20004;SDS011;69160;45.498;-73.582;2023-07-13T04:04:22;1.70;;;1.50;;
20004;SDS011;69160;45.498;-73.582;2023-07-13T04:06:48;1.40;;;1.30;;
20004;SDS011;69160;45.498;-73.582;2023-07-13T04:09:15;2.13;;;1.50;;
20004;SDS011;69160;45.498;-73.582;2023-07-13T04:11:41;2.10;;;1.70;;
20004;SDS011;69160;45.498;-73.582;2023-07-13T04:14:07;1.87;;;1.47;;
20004;SDS011;69160;45.498;-73.582;2023-07-13T04:16:33;2.60;;;1.80;;
20004;SDS011;69160;45.498;-73.582;2023-07-13T04:18:59;1.57;;;1.40;;
20004;SDS011;69160;45.498;-73.582;2023-07-13T04:21:26;2.60;;;1.53;;
20004;SDS011;69160;45.498;-73.582;2023-07-13T04:23:54;1.53;;;1.43;;
20004;SDS011;69160;45.498;-73.582;2023-07-13T04:26:20;2.27;;;1.60;;
20004;SDS011;69160;45.498;-73.582;2023-07-13T04:28:48;2.20;;;1.77;;
20004;SDS011;69160;45.498;-73.582;2023-07-13T04:31:15;2.00;;;1.60;;
20004;SDS011;69160;45.498;-73.582;2023-07-13T04:33:41;1.83;;;1.50;;
20004;SDS011;69160;45.498;-73.582;2023-07-13T04:36:08;1.63;;;1.53;;
20004;SDS011;69160;45.498;-73.582;2023-07-13T04:38:35;1.60;;;1.50;;
20004;SDS011;69160;45.498;-73.582;2023-07-13T04:41:03;2.63;;;2.20;;
20004;SDS011;69160;45.498;-73.582;2023-07-13T04:43:31;1.60;;;1.50;;
20004;SDS011;69160;45.498;-73.582;2023-07-13T04:46:02;2.63;;;1.37;;
20004;SDS011;69160;45.498;-73.582;2023-07-13T04:48:30;2.33;;;1.50;;
20004;SDS011;69160;45.498;-73.582;2023-07-13T04:50:57;2.30;;;1.80;;
20004;SDS011;69160;45.498;-73.582;2023-07-13T04:53:24;2.13;;;1.83;;
20004;SDS011;69160;45.498;-73.582;2023-07-13T04:55:51;1.80;;;1.70;;
20004;SDS011;69160;45.498;-73.582;2023-07-13T04:58:17;2.80;;;1.60;;
20004;SDS011;69160;45.498;-73.582;2023-07-13T05:00:43;1.70;;;1.60;;
20004;SDS011;69160;45.498;-73.582;2023-07-13T05:03:09;1.97;;;1.60;;
20004;SDS011;69160;45.498;-73.582;2023-07-13T05:05:36;1.87;;;1.40;;
20004;SDS011;69160;45.498;-73.582;2023-07-13T05:08:02;1.90;;;1.70;;
20004;SDS011;69160;45.498;-73.582;2023-07-13T05:10:28;1.80;;;1.70;;
20004;SDS011;69160;45.498;-73.582;2023-07-13T05:12:54;4.30;;;1.57;;
20004;SDS011;69160;45.498;-73.582;2023-07-13T05:15:21;2.10;;;1.60;;
20004;SDS011;69160;45.498;-73.582;2023-07-13T05:17:48;2.20;;;1.80;;
20004;SDS011;69160;45.498;-73.582;2023-07-13T05:20:15;1.70;;;1.50;;
20004;SDS011;69160;45.498;-73.582;2023-07-13T05:22:43;1.80;;;1.53;;
20004;SDS011;69160;45.498;-73.582;2023-07-13T05:25:12;1.60;;;1.50;;
20004;SDS011;69160;45.498;-73.582;2023-07-13T05:27:38;1.70;;;1.37;;
20004;SDS011;69160;45.498;-73.582;2023-07-13T05:30:05;2.17;;;1.70;;
20004;SDS011;69160;45.498;-73.582;2023-07-13T05:32:32;1.60;;;1.50;;
20004;SDS011;69160;45.498;-73.582;2023-07-13T05:34:58;1.50;;;1.40;;
20004;SDS011;69160;45.498;-73.582;2023-07-13T05:37:24;3.23;;;1.60;;
20004;SDS011;69160;45.498;-73.582;2023-07-13T05:39:50;1.57;;;1.40;;
20004;SDS011;69160;45.498;-73.582;2023-07-13T05:42:17;1.47;;;1.30;;
20004;SDS011;69160;45.498;-73.582;2023-07-13T05:44:43;2.07;;;1.60;;
20004;SDS011;69160;45.498;-73.582;2023-07-13T05:47:09;2.03;;;1.60;;
20004;SDS011;69160;45.498;-73.582;2023-07-13T05:49:36;1.50;;;1.40;;
20004;SDS011;69160;45.498;-73.582;2023-07-13T05:52:02;2.20;;;1.60;;
20004;SDS011;69160;45.498;-73.582;2023-07-13T05:54:28;1.60;;;1.50;;
20004;SDS011;69160;45.498;-73.582;2023-07-13T05:56:55;1.87;;;1.60;;
20004;SDS011;69160;45.498;-73.582;2023-07-13T05:59:21;2.03;;;1.50;;
20004;SDS011;69160;45.498;-73.582;2023-07-13T06:01:47;1.77;;;1.30;;
20004;SDS011;69160;45.498;-73.582;2023-07-13T06:04:14;2.47;;;1.50;;
20004;SDS011;69160;45.498;-73.582;2023-07-13T06:06:40;1.40;;;1.20;;
20004;SDS011;69160;45.498;-73.582;2023-07-13T06:09:06;1.23;;;1.13;;
20004;SDS011;69160;45.498;-73.582;2023-07-13T06:11:32;1.80;;;1.50;;
20004;SDS011;69160;45.498;-73.582;2023-07-13T06:14:00;1.63;;;1.37;;
20004;SDS011;69160;45.498;-73.582;2023-07-13T06:16:26;2.40;;;1.70;;
20004;SDS011;69160;45.498;-73.582;2023-07-13T06:18:52;1.90;;;1.70;;
20004;SDS011;69160;45.498;-73.582;2023-07-13T06:21:19;1.80;;;1.10;;
20004;SDS011;69160;45.498;-73.582;2023-07-13T06:23:47;1.33;;;1.23;;
20004;SDS011;69160;45.498;-73.582;2023-07-13T06:26:14;1.50;;;1.30;;
20004;SDS011;69160;45.498;-73.582;2023-07-13T06:28:40;1.93;;;1.50;;
20004;SDS011;69160;45.498;-73.582;2023-07-13T06:31:07;1.87;;;1.50;;
20004;SDS011;69160;45.498;-73.582;2023-07-13T06:33:35;1.70;;;1.27;;
20004;SDS011;69160;45.498;-73.582;2023-07-13T06:36:02;1.30;;;1.20;;
20004;SDS011;69160;45.498;-73.582;2023-07-13T06:38:30;1.40;;;1.30;;
20004;SDS011;69160;45.498;-73.582;2023-07-13T06:40:56;1.67;;;1.30;;
20004;SDS011;69160;45.498;-73.582;2023-07-13T06:43:23;2.10;;;1.37;;
20004;SDS011;69160;45.498;-73.582;2023-07-13T06:45:54;1.20;;;1.00;;
20004;SDS011;69160;45.498;-73.582;2023-07-13T06:48:21;1.47;;;1.27;;
20004;SDS011;69160;45.498;-73.582;2023-07-13T06:50:48;1.63;;;1.40;;
20004;SDS011;69160;45.498;-73.582;2023-07-13T06:53:15;1.30;;;1.20;;
20004;SDS011;69160;45.498;-73.582;2023-07-13T06:55:43;1.20;;;1.10;;
20004;SDS011;69160;45.498;-73.582;2023-07-13T06:58:10;1.37;;;1.10;;
20004;SDS011;69160;45.498;-73.582;2023-07-13T07:00:36;1.60;;;1.20;;
20004;SDS011;69160;45.498;-73.582;2023-07-13T07:03:05;1.40;;;1.00;;
20004;SDS011;69160;45.498;-73.582;2023-07-13T07:05:31;1.30;;;1.10;;
20004;SDS011;69160;45.498;-73.582;2023-07-13T07:07:58;1.90;;;1.40;;
20004;SDS011;69160;45.498;-73.582;2023-07-13T07:10:24;1.50;;;1.33;;
20004;SDS011;69160;45.498;-73.582;2023-07-13T07:12:51;3.53;;;1.47;;
20004;SDS011;69160;45.498;-73.582;2023-07-13T07:15:18;1.50;;;1.20;;
20004;SDS011;69160;45.498;-73.582;2023-07-13T07:17:44;1.40;;;1.20;;
20004;SDS011;69160;45.498;-73.582;2023-07-13T07:20:10;1.20;;;0.93;;
20004;SDS011;69160;45.498;-73.582;2023-07-13T07:22:37;1.67;;;1.20;;
20004;SDS011;69160;45.498;-73.582;2023-07-13T07:25:03;1.70;;;1.30;;
20004;SDS011;69160;45.498;-73.582;2023-07-13T07:27:30;1.40;;;1.10;;
20004;SDS011;69160;45.498;-73.582;2023-07-13T07:29:56;1.93;;;1.23;;
20004;SDS011;69160;45.498;-73.582;2023-07-13T07:32:24;1.70;;;1.07;;
20004;SDS011;69160;45.498;-73.582;2023-07-13T07:34:51;1.30;;;1.10;;
20004;SDS011;69160;45.498;-73.582;2023-07-13T07:37:17;1.53;;;1.23;;
20004;SDS011;69160;45.498;-73.582;2023-07-13T07:39:43;2.00;;;1.23;;
20004;SDS011;69160;45.498;-73.582;2023-07-13T07:42:10;1.87;;;1.40;;
20004;SDS011;69160;45.498;-73.582;2023-07-13T07:44:37;1.13;;;1.00;;
20004;SDS011;69160;45.498;-73.582;2023-07-13T07:47:05;1.37;;;1.27;;
20004;SDS011;69160;45.498;-73.582;2023-07-13T07:49:32;1.47;;;1.20;;
20004;SDS011;69160;45.498;-73.582;2023-07-13T07:51:58;1.20;;;1.10;;
20004;SDS011;69160;45.498;-73.582;2023-07-13T07:54:24;1.10;;;1.00;;
20004;SDS011;69160;45.498;-73.582;2023-07-13T07:56:50;1.57;;;1.33;;
20004;SDS011;69160;45.498;-73.582;2023-07-13T07:59:17;1.50;;;1.30;;
20004;SDS011;69160;45.498;-73.582;2023-07-13T08:01:43;1.30;;;1.10;;
20004;SDS011;69160;45.498;-73.582;2023-07-13T08:04:11;1.30;;;1.20;;
20004;SDS011;69160;45.498;-73.582;2023-07-13T08:06:37;2.33;;;1.40;;
20004;SDS011;69160;45.498;-73.582;2023-07-13T08:09:03;1.43;;;1.20;;
20004;SDS011;69160;45.498;-73.582;2023-07-13T08:11:30;1.23;;;1.10;;
20004;SDS011;69160;45.498;-73.582;2023-07-13T08:13:56;1.60;;;1.13;;
20004;SDS011;69160;45.498;-73.582;2023-07-13T08:16:22;1.40;;;1.27;;
20004;SDS011;69160;45.498;-73.582;2023-07-13T08:18:49;1.30;;;1.03;;
20004;SDS011;69160;45.498;-73.582;2023-07-13T08:21:15;2.17;;;1.27;;
20004;SDS011;69160;45.498;-73.582;2023-07-13T08:23:41;1.33;;;1.10;;
20004;SDS011;69160;45.498;-73.582;2023-07-13T08:26:07;1.83;;;1.17;;
20004;SDS011;69160;45.498;-73.582;2023-07-13T08:28:34;1.97;;;1.47;;
20004;SDS011;69160;45.498;-73.582;2023-07-13T08:31:04;1.20;;;1.00;;
20004;SDS011;69160;45.498;-73.582;2023-07-13T08:33:33;1.20;;;1.00;;
20004;SDS011;69160;45.498;-73.582;2023-07-13T08:36:01;1.40;;;1.13;;
20004;SDS011;69160;45.498;-73.582;2023-07-13T08:38:27;1.17;;;0.93;;
20004;SDS011;69160;45.498;-73.582;2023-07-13T08:40:54;1.83;;;1.10;;
20004;SDS011;69160;45.498;-73.582;2023-07-13T08:43:34;1.43;;;1.30;;
20004;SDS011;69160;45.498;-73.582;2023-07-13T08:48:53;1.50;;;1.00;;
20004;SDS011;69160;45.498;-73.582;2023-07-13T08:54:12;1.20;;;1.10;;
20004;SDS011;69160;45.498;-73.582;2023-07-13T08:56:45;3.43;;;1.20;;
20004;SDS011;69160;45.498;-73.582;2023-07-13T08:59:15;1.20;;;1.10;;
20004;SDS011;69160;45.498;-73.582;2023-07-13T09:04:30;5.23;;;1.40;;
20004;SDS011;69160;45.498;-73.582;2023-07-13T09:12:46;2.13;;;1.20;;
20004;SDS011;69160;45.498;-73.582;2023-07-13T09:18:27;1.00;;;0.90;;
20004;SDS011;69160;45.498;-73.582;2023-07-13T09:21:10;1.10;;;0.97;;
20004;SDS011;69160;45.498;-73.582;2023-07-13T09:24:20;1.10;;;1.00;;
20004;SDS011;69160;45.498;-73.582;2023-07-13T09:27:01;1.00;;;0.90;;
20004;SDS011;69160;45.498;-73.582;2023-07-13T09:29:45;1.00;;;0.90;;
20004;SDS011;69160;45.498;-73.582;2023-07-13T09:32:15;1.13;;;1.00;;
20004;SDS011;69160;45.498;-73.582;2023-07-13T09:34:53;1.13;;;1.00;;
20004;SDS011;69160;45.498;-73.582;2023-07-13T09:37:20;1.40;;;1.30;;
20004;SDS011;69160;45.498;-73.582;2023-07-13T09:39:48;3.10;;;1.40;;
20004;SDS011;69160;45.498;-73.582;2023-07-13T09:42:17;2.57;;;1.17;;
20004;SDS011;69160;45.498;-73.582;2023-07-13T09:44:54;1.60;;;1.00;;
20004;SDS011;69160;45.498;-73.582;2023-07-13T09:47:23;1.00;;;0.90;;
20004;SDS011;69160;45.498;-73.582;2023-07-13T09:50:08;1.83;;;1.10;;
20004;SDS011;69160;45.498;-73.582;2023-07-13T09:55:22;1.00;;;0.90;;
20004;SDS011;69160;45.498;-73.582;2023-07-13T09:57:57;1.13;;;1.03;;
20004;SDS011;69160;45.498;-73.582;2023-07-13T10:00:25;1.17;;;0.90;;
20004;SDS011;69160;45.498;-73.582;2023-07-13T10:02:58;1.37;;;1.13;;
20004;SDS011;69160;45.498;-73.582;2023-07-13T10:05:46;1.77;;;1.43;;
20004;SDS011;69160;45.498;-73.582;2023-07-13T10:08:25;1.00;;;0.90;;
20004;SDS011;69160;45.498;-73.582;2023-07-13T10:11:00;1.57;;;1.17;;
20004;SDS011;69160;45.498;-73.582;2023-07-13T10:13:35;2.60;;;1.20;;
20004;SDS011;69160;45.498;-73.582;2023-07-13T10:16:06;1.40;;;1.17;;
20004;SDS011;69160;45.498;-73.582;2023-07-13T10:18:38;1.63;;;1.20;;
20004;SDS011;69160;45.498;-73.582;2023-07-13T10:21:11;2.30;;;1.20;;
20004;SDS011;69160;45.498;-73.582;2023-07-13T10:23:53;3.87;;;1.50;;
20004;SDS011;69160;45.498;-73.582;2023-07-13T10:26:27;1.90;;;1.30;;
20004;SDS011;69160;45.498;-73.582;2023-07-13T10:28:57;2.00;;;1.23;;
20004;SDS011;69160;45.498;-73.582;2023-07-13T10:31:29;2.27;;;1.40;;
20004;SDS011;69160;45.498;-73.582;2023-07-13T10:33:56;1.67;;;1.10;;
20004;SDS011;69160;45.498;-73.582;2023-07-13T10:39:27;1.47;;;1.20;;
20004;SDS011;69160;45.498;-73.582;2023-07-13T10:41:57;2.00;;;1.33;;
20004;SDS011;69160;45.498;-73.582;2023-07-13T10:44:28;1.57;;;1.10;;
20004;SDS011;69160;45.498;-73.582;2023-07-13T10:47:06;2.63;;;1.20;;
20004;SDS011;69160;45.498;-73.582;2023-07-13T10:49:38;7.67;;;1.50;;
20004;SDS011;69160;45.498;-73.582;2023-07-13T10:52:06;2.33;;;1.20;;
20004;SDS011;69160;45.498;-73.582;2023-07-13T10:54:52;2.40;;;1.57;;
20004;SDS011;69160;45.498;-73.582;2023-07-13T10:57:22;3.30;;;1.40;;
20004;SDS011;69160;45.498;-73.582;2023-07-13T11:00:13;1.63;;;1.37;;
20004;SDS011;69160;45.498;-73.582;2023-07-13T11:02:42;2.03;;;1.40;;
20004;SDS011;69160;45.498;-73.582;2023-07-13T11:05:26;1.93;;;1.10;;
20004;SDS011;69160;45.498;-73.582;2023-07-13T11:07:56;2.53;;;1.27;;
20004;SDS011;69160;45.498;-73.582;2023-07-13T11:10:52;3.33;;;1.17;;
20004;SDS011;69160;45.498;-73.582;2023-07-13T11:16:43;1.83;;;1.37;;
20004;SDS011;69160;45.498;-73.582;2023-07-13T11:24:28;67.60;;;24.67;;
20004;SDS011;69160;45.498;-73.582;2023-07-13T11:27:25;60.63;;;21.23;;
20004;SDS011;69160;45.498;-73.582;2023-07-13T11:32:50;46.93;;;22.40;;
20004;SDS011;69160;45.498;-73.582;2023-07-13T11:35:28;29.80;;;13.43;;
20004;SDS011;69160;45.498;-73.582;2023-07-13T11:37:54;17.03;;;9.40;;
20004;SDS011;69160;45.498;-73.582;2023-07-13T11:40:22;12.73;;;6.80;;
20004;SDS011;69160;45.498;-73.582;2023-07-13T11:42:52;8.70;;;5.67;;
20004;SDS011;69160;45.498;-73.582;2023-07-13T11:45:19;8.33;;;5.20;;
20004;SDS011;69160;45.498;-73.582;2023-07-13T11:47:49;7.80;;;4.30;;
20004;SDS011;69160;45.498;-73.582;2023-07-13T11:50:19;11.10;;;3.70;;
20004;SDS011;69160;45.498;-73.582;2023-07-13T11:52:49;7.17;;;3.20;;
20004;SDS011;69160;45.498;-73.582;2023-07-13T11:55:19;5.97;;;2.97;;
20004;SDS011;69160;45.498;-73.582;2023-07-13T11:57:57;3.40;;;2.53;;
20004;SDS011;69160;45.498;-73.582;2023-07-13T12:00:27;5.40;;;3.00;;
20004;SDS011;69160;45.498;-73.582;2023-07-13T12:02:57;4.23;;;2.50;;
20004;SDS011;69160;45.498;-73.582;2023-07-13T12:05:25;3.13;;;2.00;;
20004;SDS011;69160;45.498;-73.582;2023-07-13T12:07:52;5.77;;;2.50;;
20004;SDS011;69160;45.498;-73.582;2023-07-13T12:10:26;3.20;;;2.20;;
20004;SDS011;69160;45.498;-73.582;2023-07-13T12:12:57;3.60;;;2.37;;
20004;SDS011;69160;45.498;-73.582;2023-07-13T12:15:42;4.83;;;2.20;;
20004;SDS011;69160;45.498;-73.582;2023-07-13T12:18:13;3.07;;;1.70;;
20004;SDS011;69160;45.498;-73.582;2023-07-13T12:20:41;21.83;;;5.80;;
20004;SDS011;69160;45.498;-73.582;2023-07-13T12:25:55;12.97;;;3.30;;
20004;SDS011;69160;45.498;-73.582;2023-07-13T12:28:35;12.70;;;2.70;;
20004;SDS011;69160;45.498;-73.582;2023-07-13T12:31:04;5.77;;;2.30;;
20004;SDS011;69160;45.498;-73.582;2023-07-13T12:33:32;3.63;;;2.10;;
20004;SDS011;69160;45.498;-73.582;2023-07-13T12:36:00;2.40;;;1.90;;
20004;SDS011;69160;45.498;-73.582;2023-07-13T12:38:28;4.30;;;2.20;;
20004;SDS011;69160;45.498;-73.582;2023-07-13T12:40:56;2.93;;;2.07;;
20004;SDS011;69160;45.498;-73.582;2023-07-13T12:43:23;3.83;;;1.90;;
20004;SDS011;69160;45.498;-73.582;2023-07-13T12:48:50;3.00;;;1.57;;
20004;SDS011;69160;45.498;-73.582;2023-07-13T12:51:21;3.60;;;2.10;;
20004;SDS011;69160;45.498;-73.582;2023-07-13T12:53:56;2.37;;;1.67;;
20004;SDS011;69160;45.498;-73.582;2023-07-13T12:56:30;3.00;;;2.00;;
20004;SDS011;69160;45.498;-73.582;2023-07-13T12:59:01;2.80;;;1.90;;
20004;SDS011;69160;45.498;-73.582;2023-07-13T13:01:29;1.60;;;1.50;;
20004;SDS011;69160;45.498;-73.582;2023-07-13T13:04:00;3.70;;;1.87;;
20004;SDS011;69160;45.498;-73.582;2023-07-13T13:06:36;3.13;;;2.10;;
20004;SDS011;69160;45.498;-73.582;2023-07-13T13:09:03;3.43;;;1.73;;
20004;SDS011;69160;45.498;-73.582;2023-07-13T13:11:34;4.63;;;1.80;;
20004;SDS011;69160;45.498;-73.582;2023-07-13T13:14:01;5.57;;;1.80;;
20004;SDS011;69160;45.498;-73.582;2023-07-13T13:16:31;3.33;;;2.00;;
20004;SDS011;69160;45.498;-73.582;2023-07-13T13:19:01;1.93;;;1.60;;
20004;SDS011;69160;45.498;-73.582;2023-07-13T13:21:44;2.23;;;1.70;;
20004;SDS011;69160;45.498;-73.582;2023-07-13T13:24:15;3.80;;;2.07;;
20004;SDS011;69160;45.498;-73.582;2023-07-13T13:26:43;2.17;;;1.60;;
20004;SDS011;69160;45.498;-73.582;2023-07-13T13:29:15;2.70;;;2.03;;
20004;SDS011;69160;45.498;-73.582;2023-07-13T13:31:51;2.83;;;1.80;;
20004;SDS011;69160;45.498;-73.582;2023-07-13T13:34:18;2.90;;;1.63;;
20004;SDS011;69160;45.498;-73.582;2023-07-13T13:36:49;2.10;;;1.40;;
20004;SDS011;69160;45.498;-73.582;2023-07-13T13:39:24;2.80;;;1.60;;
20004;SDS011;69160;45.498;-73.582;2023-07-13T13:41:55;2.90;;;2.10;;
20004;SDS011;69160;45.498;-73.582;2023-07-13T13:44:21;2.40;;;2.00;;
20004;SDS011;69160;45.498;-73.582;2023-07-13T13:46:50;3.17;;;1.70;;
20004;SDS011;69160;45.498;-73.582;2023-07-13T13:49:23;3.67;;;1.77;;
20004;SDS011;69160;45.498;-73.582;2023-07-13T13:51:50;5.97;;;1.80;;
20004;SDS011;69160;45.498;-73.582;2023-07-13T13:54:18;2.17;;;1.67;;
20004;SDS011;69160;45.498;-73.582;2023-07-13T13:56:47;4.00;;;1.70;;
20004;SDS011;69160;45.498;-73.582;2023-07-13T13:59:15;4.13;;;1.80;;
20004;SDS011;69160;45.498;-73.582;2023-07-13T14:01:41;2.43;;;1.70;;
20004;SDS011;69160;45.498;-73.582;2023-07-13T14:04:13;3.17;;;2.30;;
20004;SDS011;69160;45.498;-73.582;2023-07-13T14:06:42;3.20;;;2.13;;
20004;SDS011;69160;45.498;-73.582;2023-07-13T14:09:10;4.97;;;2.53;;
20004;SDS011;69160;45.498;-73.582;2023-07-13T14:11:38;5.03;;;2.77;;
20004;SDS011;69160;45.498;-73.582;2023-07-13T14:14:24;8.97;;;2.70;;
20004;SDS011;69160;45.498;-73.582;2023-07-13T14:16:52;6.23;;;3.03;;
20004;SDS011;69160;45.498;-73.582;2023-07-13T14:19:20;3.13;;;2.43;;
20004;SDS011;69160;45.498;-73.582;2023-07-13T14:21:47;3.23;;;2.10;;
20004;SDS011;69160;45.498;-73.582;2023-07-13T14:24:14;3.13;;;2.10;;
20004;SDS011;69160;45.498;-73.582;2023-07-13T14:26:41;2.80;;;2.07;;
20004;SDS011;69160;45.498;-73.582;2023-07-13T14:29:18;2.03;;;1.83;;
20004;SDS011;69160;45.498;-73.582;2023-07-13T14:31:47;2.80;;;2.07;;
20004;SDS011;69160;45.498;-73.582;2023-07-13T14:34:13;2.33;;;1.73;;
20004;SDS011;69160;45.498;-73.582;2023-07-13T14:39:15;2.80;;;2.20;;
20004;SDS011;69160;45.498;-73.582;2023-07-13T14:41:49;2.10;;;1.80;;
20004;SDS011;69160;45.498;-73.582;2023-07-13T14:44:20;2.20;;;2.00;;
20004;SDS011;69160;45.498;-73.582;2023-07-13T14:46:49;2.77;;;1.70;;
20004;SDS011;69160;45.498;-73.582;2023-07-13T14:49:58;1.90;;;1.70;;
20004;SDS011;69160;45.498;-73.582;2023-07-13T14:52:12;2.10;;;1.77;;
20004;SDS011;69160;45.498;-73.582;2023-07-13T14:54:44;2.60;;;2.30;;
20004;SDS011;69160;45.498;-73.582;2023-07-13T14:57:15;2.50;;;2.30;;
20004;SDS011;69160;45.498;-73.582;2023-07-13T14:59:43;2.37;;;2.03;;
20004;SDS011;69160;45.498;-73.582;2023-07-13T15:02:14;2.50;;;2.00;;
20004;SDS011;69160;45.498;-73.582;2023-07-13T15:05:18;4.27;;;2.00;;
20004;SDS011;69160;45.498;-73.582;2023-07-13T15:07:48;2.50;;;1.97;;
20004;SDS011;69160;45.498;-73.582;2023-07-13T15:10:15;5.70;;;2.57;;
20004;SDS011;69160;45.498;-73.582;2023-07-13T15:12:44;3.73;;;2.67;;
20004;SDS011;69160;45.498;-73.582;2023-07-13T15:15:11;4.73;;;2.60;;